Time;durP1;ratioP1;P1;durP2;ratioP2;P2;SDS_P1;SDS_P2;PMS_P1;PMS_P2;Temp;Humidity;BMP_temperature;BMP_pressure;BME280_temperature;BME280_humidity;BME280_pressure;Samples;Min_cycle;Max_cycle;Signal;HPM_P1;HPM_P2
2022/07/31 00:01:32;;;;;;;11.07;7.78;;;;;;;16.36;100.00;100841.63;7663379;23;20103;-94
2022/07/31 00:04:34;;;;;;;11.50;8.27;;;;;;;16.40;100.00;100846.53;7662382;23;20116;-94
2022/07/31 00:07:36;;;;;;;10.63;7.90;;;;;;;16.35;100.00;100845.22;7662169;23;20410;-94
2022/07/31 00:10:38;;;;;;;10.30;8.30;;;;;;;16.34;100.00;100853.19;7636674;23;20020;-93
2022/07/31 00:13:40;;;;;;;13.02;8.27;;;;;;;16.31;100.00;100858.72;7636047;23;20637;-94
2022/07/31 00:16:59;;;;;;;9.48;7.50;;;;;;;16.32;100.00;100857.75;7660647;23;20028;-94
2022/07/31 00:20:01;;;;;;;11.73;8.48;;;;;;;16.33;100.00;100849.78;7659771;23;20025;-93
2022/07/31 00:23:03;;;;;;;9.70;8.65;;;;;;;16.35;100.00;100858.28;7660601;23;20017;-94
2022/07/31 00:26:05;;;;;;;11.02;7.57;;;;;;;16.35;100.00;100860.91;7662671;23;20708;-93
2022/07/31 00:29:07;;;;;;;13.70;8.00;;;;;;;16.34;100.00;100851.41;7611140;23;20823;-93
2022/07/31 00:32:12;;;;;;;11.75;9.02;;;;;;;16.32;100.00;100848.13;7636125;23;20051;-94
2022/07/31 00:35:15;;;;;;;11.32;8.85;;;;;;;16.35;100.00;100840.00;7633384;23;20099;-94
2022/07/31 00:38:16;;;;;;;11.10;8.57;;;;;;;16.39;100.00;100840.50;7633429;23;20539;-94
2022/07/31 00:41:43;;;;;;;10.38;9.05;;;;;;;16.34;100.00;100840.13;7660543;23;20032;-93
2022/07/31 00:44:45;;;;;;;10.85;8.50;;;;;;;16.32;100.00;100839.47;7634730;23;20021;-93
2022/07/31 00:47:49;;;;;;;10.85;9.02;;;;;;;16.36;100.00;100836.41;7660902;23;20099;-93
2022/07/31 00:50:56;;;;;;;15.50;9.25;;;;;;;16.38;100.00;100838.06;7662772;23;20017;-93
2022/07/31 00:53:58;;;;;;;12.43;8.70;;;;;;;16.32;100.00;100831.63;7611287;23;20112;-93
2022/07/31 00:57:01;;;;;;;14.95;8.60;;;;;;;16.34;100.00;100834.91;7661041;23;20112;-93
2022/07/31 01:00:05;;;;;;;10.60;9.48;;;;;;;16.33;100.00;100828.88;7659993;23;20074;-93
2022/07/31 01:03:07;;;;;;;10.77;8.68;;;;;;;16.34;100.00;100829.69;7635426;23;20181;-93
2022/07/31 01:06:09;;;;;;;13.18;9.43;;;;;;;16.34;100.00;100819.22;7635359;23;20561;-93
2022/07/31 01:09:13;;;;;;;10.68;9.00;;;;;;;16.29;100.00;100816.25;7662775;23;20028;-93
2022/07/31 01:12:52;;;;;;;12.88;9.82;;;;;;;16.24;100.00;100814.09;7660984;23;20028;-93
2022/07/31 01:15:57;;;;;;;12.03;8.70;;;;;;;16.23;100.00;100816.88;7583523;23;20041;-94
2022/07/31 01:19:08;;;;;;;10.77;9.45;;;;;;;16.20;100.00;100820.59;7534434;23;20061;-93
2022/07/31 01:22:35;;;;;;;12.38;10.15;;;;;;;16.20;100.00;100820.59;7549751;23;20026;-93
2022/07/31 01:25:55;;;;;;;15.07;9.95;;;;;;;16.19;100.00;100812.91;7549749;23;20100;-93
2022/07/31 01:29:27;;;;;;;14.63;10.80;;;;;;;16.14;100.00;100816.78;7575676;23;20026;-94
2022/07/31 01:32:37;;;;;;;14.60;10.20;;;;;;;16.09;100.00;100821.63;7574827;23;20662;-93
2022/07/31 01:35:46;;;;;;;13.90;9.93;;;;;;;16.05;100.00;100825.53;7553680;23;20558;-94
2022/07/31 01:38:53;;;;;;;9.88;8.88;;;;;;;16.06;100.00;100827.16;7583813;23;20026;-93
2022/07/31 01:41:56;;;;;;;17.40;9.73;;;;;;;16.06;100.00;100821.94;7583868;23;20356;-94
2022/07/31 01:45:01;;;;;;;12.38;9.82;;;;;;;16.05;100.00;100830.75;7558832;23;20021;-94
2022/07/31 01:48:04;;;;;;;13.75;10.05;;;;;;;16.05;100.00;100822.94;7561116;23;20030;-93
2022/07/31 01:51:12;;;;;;;12.90;10.48;;;;;;;16.00;100.00;100819.94;7597656;23;20314;-93
2022/07/31 01:54:18;;;;;;;12.95;10.18;;;;;;;15.92;100.00;100815.47;7635635;23;20029;-92
2022/07/31 01:57:23;;;;;;;12.80;9.95;;;;;;;15.85;100.00;100811.81;7611640;23;20025;-93
2022/07/31 02:00:26;;;;;;;12.48;9.27;;;;;;;15.82;100.00;100808.66;7635989;23;20044;-93
2022/07/31 02:03:36;;;;;;;10.52;8.52;;;;;;;15.76;100.00;100817.09;7660668;23;20114;-92
2022/07/31 02:06:49;;;;;;;10.40;9.30;;;;;;;15.67;100.00;100819.56;7662718;23;20522;-92
2022/07/31 02:09:53;;;;;;;11.70;8.75;;;;;;;15.59;100.00;100814.28;7662566;23;20025;-93
2022/07/31 02:13:05;;;;;;;13.30;9.48;;;;;;;15.52;100.00;100805.38;7635587;23;20025;-93
2022/07/31 02:16:09;;;;;;;11.02;9.35;;;;;;;15.44;100.00;100811.34;7635312;23;20116;-92
2022/07/31 02:19:13;;;;;;;11.45;9.52;;;;;;;15.39;100.00;100812.75;7635794;23;20337;-92
2022/07/31 02:22:16;;;;;;;14.07;10.15;;;;;;;15.39;100.00;100820.56;7661038;23;20439;-92
2022/07/31 02:25:18;;;;;;;12.07;9.55;;;;;;;15.37;100.00;100822.50;7661060;23;20021;-92
2022/07/31 02:28:21;;;;;;;10.55;9.35;;;;;;;15.35;100.00;100820.03;7656127;23;20399;-93
2022/07/31 02:31:23;;;;;;;11.90;9.88;;;;;;;15.33;100.00;100810.69;7637701;23;20025;-92
2022/07/31 02:34:26;;;;;;;14.60;10.77;;;;;;;15.29;100.00;100818.00;7613821;23;20700;-92
2022/07/31 02:37:33;;;;;;;14.13;11.20;;;;;;;15.31;100.00;100812.66;7662805;23;20353;-93
2022/07/31 02:40:38;;;;;;;12.45;11.15;;;;;;;15.33;100.00;100806.34;7661731;23;20367;-92
2022/07/31 02:43:44;;;;;;;13.23;11.07;;;;;;;15.36;100.00;100815.66;7663821;23;20028;-92
2022/07/31 02:47:01;;;;;;;14.90;12.43;;;;;;;15.37;100.00;100814.66;7636848;23;20032;-92
2022/07/31 02:50:04;;;;;;;14.82;11.82;;;;;;;15.34;100.00;100807.16;7636728;23;20021;-92
2022/07/31 02:53:07;;;;;;;17.63;11.90;;;;;;;15.33;100.00;100808.09;7637191;23;20460;-92
2022/07/31 02:56:09;;;;;;;13.60;11.80;;;;;;;15.40;100.00;100806.56;7612709;23;20065;-92
2022/07/31 02:59:14;;;;;;;12.55;11.00;;;;;;;15.44;100.00;100811.34;7636662;23;20020;-92
2022/07/31 03:02:31;;;;;;;13.25;11.07;;;;;;;15.42;100.00;100804.63;7637773;23;20028;-92
2022/07/31 03:05:39;;;;;;;13.13;11.45;;;;;;;15.40;100.00;100801.34;7636629;23;20188;-92
2022/07/31 03:08:41;;;;;;;15.52;11.23;;;;;;;15.36;100.00;100802.59;7662889;23;20044;-92
2022/07/31 03:11:43;;;;;;;14.07;11.70;;;;;;;15.35;100.00;100803.56;7636655;23;20083;-92
2022/07/31 03:14:46;;;;;;;12.88;10.82;;;;;;;15.36;100.00;100800.81;7661658;23;20025;-92
2022/07/31 03:17:50;;;;;;;13.80;12.25;;;;;;;15.38;100.00;100798.03;7661818;23;20036;-92
2022/07/31 03:20:58;;;;;;;14.10;11.68;;;;;;;15.45;100.00;100796.50;7637231;23;20029;-92
2022/07/31 03:24:02;;;;;;;16.40;12.05;;;;;;;15.51;100.00;100794.13;7637316;23;20036;-92
2022/07/31 03:27:04;;;;;;;16.67;11.10;;;;;;;15.57;100.00;100795.31;7661697;23;20522;-92
2022/07/31 03:30:15;;;;;;;14.32;11.63;;;;;;;15.60;100.00;100792.44;7665461;23;20017;-92
2022/07/31 03:33:17;;;;;;;14.85;11.10;;;;;;;15.65;100.00;100784.16;7638278;23;20024;-92
2022/07/31 03:36:19;;;;;;;14.88;11.18;;;;;;;15.70;100.00;100787.16;7636711;23;20082;-91
2022/07/31 03:39:21;;;;;;;12.93;11.18;;;;;;;15.74;100.00;100787.72;7663340;23;20017;-92
2022/07/31 03:42:25;;;;;;;13.05;9.98;;;;;;;15.79;100.00;100782.84;7637377;23;20644;-92
2022/07/31 03:45:29;;;;;;;12.98;11.60;;;;;;;15.83;100.00;100776.38;7662704;23;20359;-92
2022/07/31 03:48:32;;;;;;;14.05;10.77;;;;;;;15.85;100.00;100779.63;7662597;23;20031;-92
2022/07/31 03:51:34;;;;;;;15.20;10.57;;;;;;;15.87;100.00;100782.94;7612134;23;20021;-92
2022/07/31 03:54:36;;;;;;;10.60;9.15;;;;;;;15.85;100.00;100780.47;7637782;23;20060;-92
2022/07/31 03:57:53;;;;;;;11.90;10.07;;;;;;;15.83;100.00;100785.03;7637070;23;20033;-92
2022/07/31 04:00:56;;;;;;;11.68;9.15;;;;;;;15.82;100.00;100778.16;7637342;23;20029;-92
2022/07/31 04:04:00;;;;;;;14.05;10.40;;;;;;;15.84;100.00;100783.22;7662717;23;20468;-93
2022/07/31 04:07:08;;;;;;;14.00;10.75;;;;;;;15.88;100.00;100779.38;7662687;23;20482;-92
2022/07/31 04:10:11;;;;;;;17.98;11.57;;;;;;;15.92;100.00;100781.53;7636938;23;20471;-92
2022/07/31 04:13:12;;;;;;;15.02;12.15;;;;;;;15.96;100.00;100771.59;7662726;23;20035;-92
2022/07/31 04:16:15;;;;;;;16.05;12.75;;;;;;;16.02;100.00;100786.66;7637743;23;20027;-92
2022/07/31 04:19:17;;;;;;;14.48;12.38;;;;;;;16.08;100.00;100785.25;7636711;23;20111;-91
2022/07/31 04:22:19;;;;;;;13.45;12.05;;;;;;;16.14;100.00;100784.63;7613215;23;20115;-93
2022/07/31 04:25:22;;;;;;;15.52;11.38;;;;;;;16.20;100.00;100780.59;7637108;23;20111;-92
2022/07/31 04:28:41;;;;;;;15.30;12.07;;;;;;;16.28;100.00;100784.09;7663013;23;20017;-92
2022/07/31 04:31:43;;;;;;;17.05;13.05;;;;;;;16.34;100.00;100780.84;7636957;23;20260;-91
2022/07/31 04:34:49;;;;;;;18.40;12.90;;;;;;;16.41;100.00;100785.50;7637682;23;20040;-92
2022/07/31 04:37:52;;;;;;;16.83;12.95;;;;;;;16.44;100.00;100791.22;7636093;23;20057;-92
2022/07/31 04:40:55;;;;;;;16.15;12.23;;;;;;;16.49;100.00;100786.34;7636893;23;20114;-92
2022/07/31 04:43:58;;;;;;;17.40;12.65;;;;;;;16.53;100.00;100779.84;7663887;23;20017;-92
2022/07/31 04:47:06;;;;;;;15.50;12.23;;;;;;;16.59;100.00;100781.03;7636778;23;20115;-92
2022/07/31 04:50:12;;;;;;;19.60;10.93;;;;;;;16.63;100.00;100782.38;7636728;23;20362;-92
2022/07/31 04:53:28;;;;;;;16.20;11.88;;;;;;;16.69;100.00;100788.75;7662725;23;20016;-92
2022/07/31 04:56:40;;;;;;;13.43;11.43;;;;;;;16.72;100.00;100796.28;7660174;23;20028;-93
2022/07/31 04:59:43;;;;;;;14.15;11.40;;;;;;;16.77;100.00;100794.06;7662873;23;20490;-92
2022/07/31 05:03:06;;;;;;;13.15;10.55;;;;;;;16.76;100.00;100801.06;7661520;23;20444;-92
2022/07/31 05:06:11;;;;;;;12.60;10.20;;;;;;;16.79;100.00;100802.56;7661955;23;20017;-92
2022/07/31 05:09:21;;;;;;;13.75;10.20;;;;;;;16.82;100.00;100804.06;7661602;23;20056;-92
2022/07/31 05:12:28;;;;;;;13.43;10.13;;;;;;;16.89;100.00;100805.91;7636535;23;20021;-93
2022/07/31 05:15:30;;;;;;;14.23;10.40;;;;;;;16.95;100.00;100805.28;7641247;23;20029;-92
2022/07/31 05:18:32;;;;;;;13.80;10.30;;;;;;;17.04;100.00;100797.47;7636503;23;20048;-92
2022/07/31 05:21:53;;;;;;;14.07;9.88;;;;;;;17.16;100.00;100799.66;7663357;23;20029;-92
2022/07/31 05:25:24;;;;;;;11.05;9.93;;;;;;;17.27;100.00;100789.91;7584475;23;20033;-93
2022/07/31 05:28:26;;;;;;;11.35;9.50;;;;;;;17.39;100.00;100786.84;7560316;23;20069;-94
2022/07/31 05:31:31;;;;;;;10.57;9.48;;;;;;;17.52;100.00;100780.31;7536272;23;20026;-92
2022/07/31 05:34:33;;;;;;;11.90;9.73;;;;;;;17.62;100.00;100766.09;7559731;23;20022;-92
2022/07/31 05:37:35;;;;;;;16.38;9.15;;;;;;;17.69;100.00;100771.53;7559321;23;20025;-92
2022/07/31 05:40:39;;;;;;;10.00;8.95;;;;;;;17.77;100.00;100768.09;7584275;23;20495;-92
2022/07/31 05:44:11;;;;;;;13.02;8.88;;;;;;;17.83;100.00;100772.69;7493669;23;20058;-92
2022/07/31 05:47:19;;;;;;;9.43;8.15;;;;;;;17.93;100.00;100775.97;7512338;23;20030;-91
2022/07/31 05:50:21;;;;;;;9.13;8.20;;;;;;;18.01;100.00;100776.00;7512259;23;20031;-92
2022/07/31 05:53:23;;;;;;;10.85;7.88;;;;;;;18.11;100.00;100769.75;7512723;23;20760;-92
2022/07/31 05:56:44;;;;;;;8.88;8.00;;;;;;;18.16;100.00;100770.06;7513018;23;20402;-93
2022/07/31 05:59:48;;;;;;;8.30;7.50;;;;;;;18.28;100.00;100777.47;7488840;23;20046;-92
2022/07/31 06:02:51;;;;;;;8.80;7.75;;;;;;;18.45;100.00;100774.81;7487986;23;20595;-92
2022/07/31 06:06:25;;;;;;;10.30;8.05;;;;;;;18.68;100.00;100781.00;7514567;23;20026;-92
2022/07/31 06:09:28;;;;;;;8.77;7.70;;;;;;;18.77;100.00;100773.94;7514960;23;20446;-92
2022/07/31 06:12:30;;;;;;;13.20;7.97;;;;;;;18.88;100.00;100772.75;7539389;23;20058;-92
2022/07/31 06:15:36;;;;;;;9.45;7.82;;;;;;;18.96;100.00;100767.50;7490401;23;20393;-92
2022/07/31 06:18:42;;;;;;;10.60;8.45;;;;;;;19.08;100.00;100755.63;7514776;23;20175;-92
2022/07/31 06:21:45;;;;;;;9.75;8.20;;;;;;;19.21;100.00;100760.31;7603210;23;20645;-92
2022/07/31 06:24:47;;;;;;;11.18;7.95;;;;;;;19.33;100.00;100763.38;7663704;23;20017;-92
2022/07/31 06:27:51;;;;;;;9.18;8.27;;;;;;;19.40;100.00;100766.94;7662959;23;20025;-92
2022/07/31 06:31:03;;;;;;;9.23;8.15;;;;;;;19.48;100.00;100766.91;7637752;23;20040;-92
2022/07/31 06:34:05;;;;;;;9.52;8.60;;;;;;;19.63;100.00;100768.78;7638078;23;20025;-92
2022/07/31 06:37:14;;;;;;;9.65;8.23;;;;;;;19.71;100.00;100776.63;7638339;23;20072;-92
2022/07/31 06:40:17;;;;;;;11.05;8.73;;;;;;;19.81;100.00;100774.59;7637846;23;20475;-93
2022/07/31 06:43:19;;;;;;;10.00;7.95;;;;;;;19.89;100.00;100776.34;7664811;23;20554;-93
2022/07/31 06:46:39;;;;;;;9.10;7.75;;;;;;;20.06;100.00;100777.03;7663325;23;20029;-93
2022/07/31 06:50:28;;;;;;;10.57;7.55;;;;;;;20.17;100.00;100785.31;7659821;23;20153;-92
2022/07/31 06:53:53;;;;;;;10.32;7.05;;;;;;;20.34;100.00;100782.50;7659509;23;20774;-93
2022/07/31 06:56:55;;;;;;;11.50;7.35;;;;;;;20.36;100.00;100768.19;7659809;23;20025;-93
2022/07/31 06:59:57;;;;;;;8.30;6.28;;;;;;;20.46;100.00;100777.66;7634556;23;20440;-93
2022/07/31 07:02:59;;;;;;;9.27;6.93;;;;;;;20.54;100.00;100780.19;7609173;23;20028;-94
2022/07/31 07:06:02;;;;;;;7.85;6.32;;;;;;;20.68;100.00;100779.41;7609960;23;20036;-94
2022/07/31 07:09:05;;;;;;;9.77;6.18;;;;;;;20.83;100.00;100768.88;7659306;23;20100;-94
2022/07/31 07:12:08;;;;;;;8.15;5.63;;;;;;;21.04;100.00;100771.59;7659018;23;20045;-94
2022/07/31 07:15:21;;;;;;;9.80;5.70;;;;;;;21.06;100.00;100774.03;7661900;23;20025;-95
2022/07/31 07:18:24;;;;;;;7.85;5.32;;;;;;;21.05;100.00;100769.78;7662221;23;20459;-96
2022/07/31 07:21:29;;;;;;;6.35;5.10;;;;;;;21.17;100.00;100760.41;7637686;23;20035;-95
2022/07/31 07:24:32;;;;;;;6.50;4.75;;;;;;;21.15;100.00;100758.97;7660933;23;20080;-94
2022/07/31 07:27:39;;;;;;;5.53;5.03;;;;;;;21.32;100.00;100756.94;7663505;23;20020;-95
2022/07/31 07:30:42;;;;;;;5.93;4.90;;;;;;;21.54;100.00;100761.25;7662003;23;20061;-96
2022/07/31 07:33:47;;;;;;;5.63;4.72;;;;;;;21.79;100.00;100759.03;7637641;23;20501;-95
2022/07/31 07:36:56;;;;;;;6.25;4.85;;;;;;;21.95;100.00;100760.59;7640313;23;20024;-96
2022/07/31 07:40:02;;;;;;;11.15;4.65;;;;;;;22.29;100.00;100759.88;7668495;23;20021;-96
2022/07/31 07:43:06;;;;;;;5.72;4.55;;;;;;;22.38;100.00;100757.88;7675066;23;20048;-96
2022/07/31 07:46:15;;;;;;;7.32;4.55;;;;;;;22.51;100.00;100746.63;7653164;23;20025;-96
2022/07/31 07:49:25;;;;;;;6.75;4.38;;;;;;;22.64;100.00;100745.88;7678982;23;20128;-96
2022/07/31 07:53:20;;;;;;;5.85;4.00;;;;;;;22.77;100.00;100741.47;7564369;23;20018;-96
2022/07/31 07:56:46;;;;;;;5.13;3.70;;;;;;;22.89;100.00;100744.38;7573334;23;20026;-96
2022/07/31 08:00:09;;;;;;;6.43;4.25;;;;;;;22.90;100.00;100739.91;7610853;23;20121;-96
2022/07/31 08:03:57;;;;;;;5.47;4.22;;;;;;;23.01;100.00;100734.09;7599187;23;20489;-96
2022/07/31 08:07:06;;;;;;;4.82;3.60;;;;;;;23.12;100.00;100725.59;7666866;23;20089;-96
2022/07/31 08:10:21;;;;;;;6.70;4.10;;;;;;;23.26;100.00;100723.81;7647147;23;20047;-96
2022/07/31 08:13:47;;;;;;;4.90;4.38;;;;;;;23.40;100.00;100729.91;7686938;23;20027;-96
2022/07/31 08:17:03;;;;;;;4.90;4.30;;;;;;;23.48;100.00;100716.53;7660012;23;20025;-96
2022/07/31 08:20:17;;;;;;;4.97;4.43;;;;;;;23.64;100.00;100715.31;7683831;23;20032;-96
2022/07/31 08:23:33;;;;;;;5.07;3.92;;;;;;;23.76;100.00;100704.97;7662720;23;20035;-96
2022/07/31 08:31:01;;;;;;;3.55;3.25;;;;;;;24.02;99.84;100704.13;7699769;23;20021;-96
2022/07/31 08:48:03;;;;;;;5.35;3.78;;;;;;;24.24;99.14;100699.41;7600823;23;20033;-96
2022/07/31 08:56:14;;;;;;;4.22;3.83;;;;;;;24.32;95.35;100704.47;7740467;22;20009;-96
2022/07/31 09:00:14;;;;;;;4.53;3.85;;;;;;;24.24;95.08;100700.22;7670809;22;20024;-96
2022/07/31 09:04:12;;;;;;;6.28;3.88;;;;;;;24.29;97.97;100696.97;7683149;23;20025;-96
2022/07/31 09:08:25;;;;;;;8.38;3.30;;;;;;;24.27;94.67;100686.63;7682680;23;20024;-96
2022/07/31 09:11:48;;;;;;;5.57;3.67;;;;;;;24.12;92.21;100683.38;7687710;23;20027;-96
2022/07/31 09:15:27;;;;;;;6.70;3.53;;;;;;;24.04;88.58;100688.88;7672837;23;20021;-96
2022/07/31 09:18:58;;;;;;;4.35;3.50;;;;;;;24.05;92.82;100674.66;7640306;23;20351;-96
2022/07/31 09:22:01;;;;;;;7.30;4.25;;;;;;;24.13;93.34;100676.25;7631402;23;20025;-96
2022/07/31 09:25:25;;;;;;;5.78;3.58;;;;;;;24.07;97.68;100676.06;7638812;23;20100;-96
2022/07/31 09:28:38;;;;;;;4.93;3.50;;;;;;;24.22;97.88;100673.19;7639688;23;20024;-96
2022/07/31 09:31:42;;;;;;;5.50;3.70;;;;;;;24.64;92.15;100670.22;7633649;23;20017;-96
2022/07/31 09:35:20;;;;;;;3.97;3.58;;;;;;;25.15;88.89;100669.34;7669450;23;20032;-96
2022/07/31 09:38:39;;;;;;;3.78;3.30;;;;;;;25.45;79.22;100668.75;7633229;23;20017;-96
2022/07/31 09:42:01;;;;;;;3.97;3.42;;;;;;;25.69;79.47;100659.97;7659419;23;20033;-96
2022/07/31 09:45:37;;;;;;;5.13;3.60;;;;;;;25.89;79.72;100659.81;7615319;23;20352;-93
2022/07/31 09:48:51;;;;;;;3.80;3.38;;;;;;;25.98;77.73;100663.00;7665275;23;20021;-93
2022/07/31 09:52:02;;;;;;;3.83;3.28;;;;;;;25.82;82.02;100655.59;7638920;23;20028;-93
2022/07/31 09:55:14;;;;;;;5.15;2.97;;;;;;;25.61;81.62;100644.34;7668254;23;20021;-94
2022/07/31 09:58:23;;;;;;;5.38;3.38;;;;;;;25.39;85.80;100638.63;7640945;23;20123;-94
2022/07/31 10:01:26;;;;;;;3.97;3.60;;;;;;;25.27;87.48;100635.06;7639957;23;20028;-94
2022/07/31 10:04:28;;;;;;;5.07;3.45;;;;;;;25.36;83.62;100628.44;7639427;23;20329;-93
2022/07/31 10:07:34;;;;;;;5.45;3.40;;;;;;;25.81;74.69;100630.88;7663601;23;20025;-93
2022/07/31 10:10:48;;;;;;;3.75;3.17;;;;;;;26.25;72.74;100631.66;7638588;23;20020;-94
2022/07/31 10:14:09;;;;;;;4.07;2.88;;;;;;;26.65;71.89;100625.88;7636873;23;20103;-94
2022/07/31 10:17:13;;;;;;;3.97;2.70;;;;;;;26.79;61.98;100623.88;7637266;23;20064;-93
2022/07/31 10:20:51;;;;;;;4.10;2.50;;;;;;;26.76;64.13;100627.78;7623102;23;20051;-92
2022/07/31 10:24:12;;;;;;;4.18;2.83;;;;;;;26.87;60.04;100620.09;7621336;23;20034;-92
2022/07/31 10:27:18;;;;;;;2.63;2.28;;;;;;;26.92;58.23;100622.88;7625933;23;20229;-92
2022/07/31 10:30:26;;;;;;;5.75;2.55;;;;;;;27.17;56.13;100628.81;7623977;23;20382;-92
2022/07/31 10:33:33;;;;;;;3.67;2.45;;;;;;;27.37;58.63;100617.88;7625648;23;20021;-92
2022/07/31 10:37:32;;;;;;;5.03;2.47;;;;;;;27.43;51.11;100616.19;7625339;23;20025;-92
2022/07/31 10:41:08;;;;;;;8.20;2.88;;;;;;;27.48;51.61;100610.97;7622053;23;20106;-91
2022/07/31 10:44:35;;;;;;;2.50;2.28;;;;;;;27.66;52.16;100600.19;7623457;23;20527;-91
2022/07/31 10:47:54;;;;;;;2.72;2.38;;;;;;;27.96;52.21;100601.13;7622868;23;20032;-92
2022/07/31 10:51:16;;;;;;;2.70;2.50;;;;;;;28.13;49.03;100589.50;7619108;23;20036;-92
2022/07/31 10:54:45;;;;;;;4.25;2.58;;;;;;;28.23;50.14;100585.44;7598377;23;20610;-92
2022/07/31 10:58:10;;;;;;;4.35;2.47;;;;;;;28.30;51.67;100580.78;7601252;23;20056;-92
2022/07/31 11:01:32;;;;;;;6.30;2.50;;;;;;;28.38;51.66;100582.25;7618931;23;20029;-91
2022/07/31 11:05:10;;;;;;;3.90;2.20;;;;;;;28.55;48.07;100583.94;7597951;23;20260;-92
2022/07/31 11:08:51;;;;;;;6.03;2.30;;;;;;;28.67;52.15;100583.06;7622739;23;20028;-92
2022/07/31 11:12:21;;;;;;;3.35;2.47;;;;;;;28.71;47.92;100573.53;7664484;23;20029;-91
2022/07/31 11:15:39;;;;;;;3.72;2.33;;;;;;;28.89;46.94;100573.31;7662615;23;20112;-91
2022/07/31 11:19:03;;;;;;;3.33;2.17;;;;;;;29.03;46.46;100567.69;7664747;23;20112;-92
2022/07/31 11:22:11;;;;;;;3.58;2.30;;;;;;;29.11;48.85;100556.63;7637702;23;20024;-92
2022/07/31 11:25:38;;;;;;;3.20;2.40;;;;;;;29.06;44.46;100553.88;7633742;23;20025;-92
2022/07/31 11:28:43;;;;;;;3.53;2.47;;;;;;;28.91;46.10;100557.88;7662217;23;20419;-91
2022/07/31 11:31:45;;;;;;;4.18;3.10;;;;;;;28.83;52.56;100544.97;7662423;23;20102;-92
2022/07/31 11:34:52;;;;;;;7.65;2.45;;;;;;;29.04;46.61;100545.28;7662264;23;20021;-91
2022/07/31 11:37:55;;;;;;;5.60;2.40;;;;;;;29.10;46.09;100545.16;7665400;23;20379;-92
2022/07/31 11:41:00;;;;;;;3.20;2.38;;;;;;;29.14;46.52;100540.13;7639266;23;20035;-91
2022/07/31 11:44:02;;;;;;;2.85;2.15;;;;;;;29.27;46.81;100539.81;7635406;23;20161;-91
2022/07/31 11:47:04;;;;;;;3.67;2.60;;;;;;;29.52;44.70;100551.91;7663442;23;20016;-91
2022/07/31 11:50:29;;;;;;;4.50;2.40;;;;;;;29.85;45.02;100537.66;7664083;23;20028;-91
2022/07/31 11:53:40;;;;;;;9.90;2.40;;;;;;;30.22;43.17;100535.13;7662861;23;20344;-91
2022/07/31 11:56:42;;;;;;;3.33;2.17;;;;;;;30.11;41.30;100532.59;7665473;23;20091;-91
2022/07/31 11:59:44;;;;;;;4.47;2.30;;;;;;;29.67;44.13;100527.31;7661604;23;20521;-91
2022/07/31 12:02:50;;;;;;;4.72;2.65;;;;;;;29.40;44.23;100528.78;7663228;23;20021;-91
2022/07/31 12:05:53;;;;;;;4.68;2.50;;;;;;;29.30;42.59;100534.00;7664094;23;20052;-91
2022/07/31 12:08:55;;;;;;;3.55;2.80;;;;;;;29.15;42.65;100526.56;7662348;23;20511;-90
2022/07/31 12:11:57;;;;;;;3.50;2.75;;;;;;;29.20;44.05;100517.84;7662899;23;20559;-91
2022/07/31 12:14:59;;;;;;;2.70;2.47;;;;;;;29.47;42.16;100506.47;7662528;23;20136;-91
2022/07/31 12:18:02;;;;;;;2.50;2.00;;;;;;;29.48;42.21;100513.41;7662598;23;20325;-90
2022/07/31 12:21:04;;;;;;;4.07;2.22;;;;;;;29.23;43.93;100517.34;7662244;23;20064;-89
2022/07/31 12:24:11;;;;;;;3.33;2.08;;;;;;;28.64;42.83;100511.63;7662318;23;20474;-90
2022/07/31 12:27:17;;;;;;;3.63;2.30;;;;;;;28.23;47.60;100508.22;7662262;23;20017;-90
2022/07/31 12:30:19;;;;;;;3.95;2.50;;;;;;;28.37;46.54;100496.22;7661828;23;20460;-89
2022/07/31 12:33:21;;;;;;;5.57;2.42;;;;;;;28.61;43.94;100499.59;7662555;23;20017;-90
2022/07/31 12:36:22;;;;;;;2.88;2.17;;;;;;;28.78;45.19;100500.41;7660284;23;20028;-90
2022/07/31 12:39:24;;;;;;;4.03;2.75;;;;;;;28.71;44.65;100498.94;7661909;23;20506;-89
2022/07/31 12:42:46;;;;;;;3.00;2.50;;;;;;;28.73;45.74;100488.88;7663780;23;20623;-90
2022/07/31 12:45:51;;;;;;;2.58;2.20;;;;;;;28.64;44.22;100477.00;7635519;23;20021;-89
2022/07/31 12:48:55;;;;;;;2.50;2.20;;;;;;;28.37;47.78;100479.44;7663670;23;20031;-89
2022/07/31 12:51:57;;;;;;;4.07;2.28;;;;;;;28.21;46.84;100473.84;7663188;23;20052;-89
2022/07/31 12:54:59;;;;;;;6.72;2.50;;;;;;;27.98;45.14;100468.66;7663859;23;20025;-89
2022/07/31 12:58:00;;;;;;;2.70;2.50;;;;;;;27.77;45.00;100473.53;7664088;23;20029;-89
2022/07/31 13:01:02;;;;;;;3.80;2.35;;;;;;;27.50;44.53;100465.28;7662668;23;20123;-89
2022/07/31 13:04:05;;;;;;;3.50;2.63;;;;;;;27.60;47.11;100464.69;7663376;23;20021;-89
2022/07/31 13:07:08;;;;;;;2.90;2.35;;;;;;;27.94;47.63;100464.84;7662662;23;20368;-89
2022/07/31 13:10:10;;;;;;;4.30;2.60;;;;;;;28.17;44.71;100461.25;7634401;23;20629;-88
2022/07/31 13:13:24;;;;;;;5.65;2.35;;;;;;;28.16;44.61;100457.00;7663135;23;20013;-89
2022/07/31 13:16:26;;;;;;;3.00;2.65;;;;;;;28.22;45.61;100451.50;7661778;23;20448;-89
2022/07/31 13:19:28;;;;;;;2.70;2.30;;;;;;;28.47;42.89;100448.50;7637265;23;20426;-89
2022/07/31 13:22:30;;;;;;;3.83;2.70;;;;;;;28.67;43.52;100453.34;7660256;23;20075;-89
2022/07/31 13:25:31;;;;;;;2.40;2.20;;;;;;;28.72;43.93;100448.09;7663344;23;20017;-89
2022/07/31 13:28:33;;;;;;;2.65;2.42;;;;;;;28.71;45.55;100445.66;7663851;23;20025;-89
2022/07/31 13:31:35;;;;;;;2.83;2.60;;;;;;;28.78;43.76;100443.66;7663723;23;20024;-89
2022/07/31 13:34:37;;;;;;;4.30;2.60;;;;;;;28.69;47.31;100437.09;7663086;23;20024;-89
2022/07/31 13:37:40;;;;;;;4.30;2.60;;;;;;;28.47;46.97;100429.88;7663581;23;20543;-89
2022/07/31 13:44:03;;;;;;;3.28;2.95;;;;;;;28.05;47.61;100437.34;7662463;23;20032;-89
2022/07/31 13:47:05;;;;;;;3.20;2.55;;;;;;;28.03;47.81;100429.63;7663152;23;20095;-89
2022/07/31 13:50:07;;;;;;;3.20;2.90;;;;;;;27.97;48.16;100433.22;7635243;23;20488;-89
2022/07/31 13:53:09;;;;;;;4.10;2.60;;;;;;;28.17;47.33;100431.97;7636054;23;20087;-89
2022/07/31 13:56:11;;;;;;;4.22;2.90;;;;;;;28.31;45.79;100428.78;7663327;23;20509;-89
2022/07/31 13:59:12;;;;;;;4.75;3.28;;;;;;;28.44;46.11;100424.19;7637555;23;20463;-89
2022/07/31 14:02:14;;;;;;;5.38;3.20;;;;;;;28.49;46.48;100426.94;7636490;23;20108;-89
2022/07/31 14:05:17;;;;;;;2.78;2.58;;;;;;;28.57;45.55;100421.22;7660184;23;20028;-89
2022/07/31 14:08:20;;;;;;;7.47;3.17;;;;;;;28.58;46.40;100414.03;7661659;23;20021;-90
2022/07/31 14:11:42;;;;;;;3.28;2.97;;;;;;;28.42;46.25;100418.28;7662109;23;20020;-88
2022/07/31 14:14:46;;;;;;;3.33;3.03;;;;;;;28.20;47.02;100413.69;7661244;23;20404;-89
2022/07/31 14:17:48;;;;;;;3.83;2.88;;;;;;;28.21;47.40;100409.97;7661535;23;20140;-89
2022/07/31 14:20:50;;;;;;;3.15;2.85;;;;;;;28.42;47.11;100410.28;7660537;23;20355;-89
2022/07/31 14:23:52;;;;;;;3.40;2.53;;;;;;;28.34;47.22;100411.50;7636928;23;20098;-89
2022/07/31 14:26:54;;;;;;;4.05;3.30;;;;;;;28.40;47.45;100409.72;7662042;23;20017;-89
2022/07/31 14:29:56;;;;;;;4.22;3.30;;;;;;;28.49;46.04;100417.09;7664690;23;20578;-89
2022/07/31 14:32:59;;;;;;;3.00;2.80;;;;;;;28.47;47.09;100427.22;7663729;23;20017;-88
2022/07/31 14:36:02;;;;;;;2.85;2.65;;;;;;;28.25;47.62;100415.63;7665808;23;20032;-88
2022/07/31 14:39:04;;;;;;;5.07;3.00;;;;;;;28.07;48.03;100409.50;7666720;23;20040;-89
2022/07/31 14:42:06;;;;;;;4.68;2.90;;;;;;;27.95;48.45;100411.41;7665789;23;20028;-88
2022/07/31 14:45:09;;;;;;;3.90;3.00;;;;;;;27.88;49.18;100424.84;7665335;23;20412;-89
2022/07/31 14:48:11;;;;;;;3.40;2.78;;;;;;;27.59;49.00;100424.00;7639402;23;20029;-88
2022/07/31 14:51:17;;;;;;;3.00;2.70;;;;;;;27.07;51.29;100423.97;7667620;23;20021;-89
2022/07/31 14:54:19;;;;;;;4.43;2.72;;;;;;;26.65;52.06;100426.72;7666609;23;20035;-89